Time;durP1;ratioP1;P1;durP2;ratioP2;P2;SDS_P1;SDS_P2;PMS_P1;PMS_P2;Temp;Humidity;BMP_temperature;BMP_pressure;BME280_temperature;BME280_humidity;BME280_pressure;Samples;Min_cycle;Max_cycle;Signal;HPM_P1;HPM_P2
2024/04/06 00:00:30;;;;;;;8.05;3.25;;;;;;;;;;2104809;28;20460;-83
2024/04/06 00:01:30;;;;;;;;;;;;;;;;;;2103913;28;20048;-81
2024/04/06 00:02:31;;;;;;;6.47;2.67;;;;;;;;;;2104471;28;20289;-83
2024/04/06 00:03:32;;;;;;;;;;;;;;;;;;2104391;28;20059;-80
2024/04/06 00:04:34;;;;;;;12.27;3.47;;;;;;;;;;2102160;28;20297;-82
2024/04/06 00:05:35;;;;;;;6.72;2.63;;;;;;;;;;2104854;28;20060;-81
2024/04/06 00:06:35;;;;;;;;;;;;;;;;;;2103910;28;20040;-82
2024/04/06 00:07:36;;;;;;;6.63;2.70;;;;;;;;;;2103751;28;19985;-82
2024/04/06 00:08:37;;;;;;;;;;;;;;;;;;2105159;28;20056;-82
2024/04/06 00:09:40;;;;;;;9.57;3.40;;;;;;;;;;2101938;28;19928;-80
2024/04/06 00:10:40;;;;;;;6.57;2.40;;;;;;;;;;2102805;28;20147;-82
2024/04/06 00:11:42;;;;;;;;;;;;;;;;;;2104386;28;20070;-81
2024/04/06 00:12:43;;;;;;;5.97;2.88;;;;;;;;;;2101901;28;20457;-82
2024/04/06 00:13:43;;;;;;;;;;;;;;;;;;2104853;28;20088;-82
2024/04/06 00:14:45;;;;;;;12.60;3.37;;;;;;;;;;2101724;28;20389;-82
2024/04/06 00:15:46;;;;;;;6.80;3.35;;;;;;;;;;2104084;28;20067;-82
2024/04/06 00:16:46;;;;;;;;;;;;;;;;;;2101879;28;20051;-81
2024/04/06 00:17:47;;;;;;;5.20;2.40;;;;;;;;;;2102229;28;19924;-82
2024/04/06 00:18:48;;;;;;;;;;;;;;;;;;2104763;28;20059;-81
2024/04/06 00:19:49;;;;;;;8.50;2.45;;;;;;;;;;2103202;28;20411;-81
2024/04/06 00:20:50;;;;;;;;;;;;;;;;;;2104214;28;20073;-82
2024/04/06 00:21:50;;;;;;;7.67;2.70;;;;;;;;;;2105411;28;19916;-82
2024/04/06 00:22:52;;;;;;;;;;;;;;;;;;2102186;28;20565;-83
2024/04/06 00:23:53;;;;;;;9.35;2.85;;;;;;;;;;2104274;28;19932;-81
2024/04/06 00:24:55;;;;;;;;;;;;;;;;;;2105071;28;20051;-80
2024/04/06 00:25:57;;;;;;;7.15;2.28;;;;;;;;;;2101998;28;19924;-81
2024/04/06 00:26:58;;;;;;;5.85;2.50;;;;;;;;;;2103623;28;20044;-81
2024/04/06 00:27:58;;;;;;;;;;;;;;;;;;2104186;28;20543;-81
2024/04/06 00:29:00;;;;;;;7.60;2.43;;;;;;;;;;2102328;28;19938;-81
2024/04/06 00:30:02;;;;;;;6.30;2.17;;;;;;;;;;2104221;28;20052;-83
2024/04/06 00:31:03;;;;;;;8.88;2.45;;;;;;;;;;2103432;28;20039;-81
2024/04/06 00:32:04;;;;;;;;;;;;;;;;;;2105317;28;20138;-81
2024/04/06 00:33:05;;;;;;;6.10;2.63;;;;;;;;;;2104630;28;19920;-83
2024/04/06 00:34:06;;;;;;;6.22;2.78;;;;;;;;;;2100361;28;20108;-81
2024/04/06 00:35:06;;;;;;;;;;;;;;;;;;2092244;28;20057;-82
2024/04/06 00:36:07;;;;;;;8.67;2.33;;;;;;;;;;2092743;28;19920;-82
2024/04/06 00:37:09;;;;;;;;;;;;;;;;;;2095248;28;20056;-82
2024/04/06 00:38:10;;;;;;;;;;;;;;;;;;2103824;28;19920;-82
2024/04/06 00:39:10;;;;;;;4.65;2.33;;;;;;;;;;2102561;28;20099;-82
2024/04/06 00:40:13;;;;;;;;;;;;;;;;;;2103578;28;20096;-81
2024/04/06 00:41:14;;;;;;;8.60;2.80;;;;;;;;;;2103535;28;19972;-81
2024/04/06 00:42:14;;;;;;;;;;;;;;;;;;2103501;28;20558;-81
2024/04/06 00:43:15;;;;;;;4.63;2.97;;;;;;;;;;2104035;28;19971;-81
2024/04/06 00:44:17;;;;;;;;;;;;;;;;;;2103611;28;20185;-82
2024/04/06 00:45:18;;;;;;;8.88;2.85;;;;;;;;;;2103833;28;20369;-82
2024/04/06 00:46:19;;;;;;;;;;;;;;;;;;2104500;28;20048;-83
2024/04/06 00:47:20;;;;;;;7.30;2.63;;;;;;;;;;2104095;28;19920;-82
2024/04/06 00:48:21;;;;;;;6.78;2.40;;;;;;;;;;2104199;28;20458;-82
2024/04/06 00:49:22;;;;;;;;;;;;;;;;;;2103827;28;20117;-81
2024/04/06 00:50:24;;;;;;;8.17;2.63;;;;;;;;;;2103518;28;19915;-82
2024/04/06 00:51:24;;;;;;;7.93;2.92;;;;;;;;;;2103127;28;20063;-81
2024/04/06 00:52:25;;;;;;;;;;;;;;;;;;2098520;28;20041;-82
2024/04/06 00:53:26;;;;;;;8.23;3.00;;;;;;;;;;2094066;28;20281;-82
2024/04/06 00:54:27;;;;;;;;;;;;;;;;;;2095413;28;20106;-81
2024/04/06 00:55:29;;;;;;;7.15;2.60;;;;;;;;;;2094090;28;19931;-80
2024/04/06 00:56:30;;;;;;;6.25;2.33;;;;;;;;;;2095673;28;20085;-83
2024/04/06 00:57:31;;;;;;;;;;;;;;;;;;2096728;28;20125;-82
2024/04/06 00:58:32;;;;;;;5.10;2.50;;;;;;;;;;2096180;28;20370;-82
2024/04/06 00:59:33;;;;;;;;;;;;;;;;;;2096309;28;20067;-82
2024/04/06 01:00:34;;;;;;;6.67;2.90;;;;;;;;;;2094836;28;20617;-82
2024/04/06 01:01:35;;;;;;;;;;;;;;;;;;2095649;28;20052;-82
2024/04/06 01:02:37;;;;;;;5.25;2.60;;;;;;;;;;2096334;28;19924;-81
2024/04/06 01:03:38;;;;;;;5.93;3.10;;;;;;;;;;2094610;28;20362;-81
2024/04/06 01:04:39;;;;;;;;;;;;;;;;;;2094736;28;20048;-81
2024/04/06 01:05:40;;;;;;;8.77;2.97;;;;;;;;;;2095429;28;20383;-83
2024/04/06 01:06:41;;;;;;;;;;;;;;;;;;2096351;28;20048;-81
2024/04/06 01:07:44;;;;;;;6.60;2.50;;;;;;;;;;2095224;28;19921;-81
2024/04/06 01:08:46;;;;;;;8.93;3.08;;;;;;;;;;2096090;28;20088;-81
2024/04/06 01:09:47;;;;;;;8.45;2.63;;;;;;;;;;2095322;28;20048;-82
2024/04/06 01:10:49;;;;;;;;;;;;;;;;;;2096128;28;20067;-82
2024/04/06 01:11:50;;;;;;;7.78;3.05;;;;;;;;;;2095928;28;19999;-81
2024/04/06 01:12:51;;;;;;;5.90;3.25;;;;;;;;;;2096361;28;20545;-83
2024/04/06 01:13:52;;;;;;;;;;;;;;;;;;2095451;28;20048;-82
2024/04/06 01:14:53;;;;;;;9.37;3.37;;;;;;;;;;2095551;28;19929;-82
2024/04/06 01:15:54;;;;;;;7.07;3.10;;;;;;;;;;2096012;28;20053;-81
2024/04/06 01:16:55;;;;;;;;;;;;;;;;;;2096944;28;20048;-83
2024/04/06 01:17:56;;;;;;;8.13;4.40;;;;;;;;;;2095474;28;19917;-81
2024/04/06 01:18:57;;;;;;;7.03;3.47;;;;;;;;;;2097149;28;20048;-82
2024/04/06 01:19:58;;;;;;;;;;;;;;;;;;2097977;28;20069;-81
2024/04/06 01:21:01;;;;;;;6.70;3.47;;;;;;;;;;2094788;28;20035;-82
2024/04/06 01:22:01;;;;;;;7.97;3.50;;;;;;;;;;2095833;28;20040;-81
2024/04/06 01:23:02;;;;;;;;;;;;;;;;;;2094401;28;20554;-82
2024/04/06 01:24:06;;;;;;;7.37;3.47;;;;;;;;;;2096070;28;19981;-81
2024/04/06 01:25:07;;;;;;;8.93;3.47;;;;;;;;;;2095682;28;20501;-84
2024/04/06 01:26:07;;;;;;;;;;;;;;;;;;2095168;28;20079;-82
2024/04/06 01:27:08;;;;;;;7.77;3.13;;;;;;;;;;2095853;28;19927;-81
2024/04/06 01:28:10;;;;;;;;;;;;;;;;;;2096604;28;20055;-83
2024/04/06 01:29:10;;;;;;;9.32;3.45;;;;;;;;;;2095841;28;19931;-82
2024/04/06 01:30:11;;;;;;;;;;;;;;;;;;2095270;28;20048;-81
2024/04/06 01:31:12;;;;;;;7.82;3.05;;;;;;;;;;2095125;28;19916;-81
2024/04/06 01:32:14;;;;;;;;;;;;;;;;;;2095639;28;20538;-81
2024/04/06 01:33:14;;;;;;;7.28;3.10;;;;;;;;;;2094838;28;19928;-79
2024/04/06 01:34:15;;;;;;;;;;;;;;;;;;2096076;28;20052;-81
2024/04/06 01:35:16;;;;;;;7.43;3.13;;;;;;;;;;2094938;28;19924;-81
2024/04/06 01:36:18;;;;;;;;;;;;;;;;;;2095866;28;20086;-81
2024/04/06 01:37:19;;;;;;;6.45;3.05;;;;;;;;;;2095137;28;19920;-81
2024/04/06 01:38:19;;;;;;;;;;;;;;;;;;2095993;28;20050;-81
2024/04/06 01:39:23;;;;;;;7.03;3.17;;;;;;;;;;2096200;28;19923;-82
2024/04/06 01:40:24;;;;;;;11.00;3.15;;;;;;;;;;2094584;28;20048;-82
2024/04/06 01:41:24;;;;;;;;;;;;;;;;;;2095359;28;20135;-82
2024/04/06 01:42:25;;;;;;;8.20;3.70;;;;;;;;;;2095645;28;19931;-81
2024/04/06 01:43:26;;;;;;;;;;;;;;;;;;2095272;28;20058;-80
2024/04/06 01:44:27;;;;;;;9.55;3.53;;;;;;;;;;2094796;28;19924;-81
2024/04/06 01:45:28;;;;;;;;;;;;;;;;;;2094672;28;20048;-82
2024/04/06 01:46:28;;;;;;;7.23;3.43;;;;;;;;;;2093973;28;19983;-80
2024/04/06 01:47:30;;;;;;;;;;;;;;;;;;2096241;28;20106;-83
2024/04/06 01:48:31;;;;;;;7.75;2.70;;;;;;;;;;2094912;28;19920;-83
2024/04/06 01:49:32;;;;;;;;;;;;;;;;;;2095656;28;20048;-82
2024/04/06 01:50:33;;;;;;;7.72;3.25;;;;;;;;;;2093552;28;20340;-81
2024/04/06 01:51:34;;;;;;;5.10;2.78;;;;;;;;;;2093768;28;20057;-82
2024/04/06 01:52:35;;;;;;;;;;;;;;;;;;2096382;28;20569;-81
2024/04/06 01:53:36;;;;;;;3.27;2.27;;;;;;;;;;2096933;28;19943;-82
2024/04/06 01:54:38;;;;;;;8.10;3.05;;;;;;;;;;2096888;28;20555;-81
2024/04/06 01:55:39;;;;;;;8.30;2.60;;;;;;;;;;2095183;28;20097;-81
2024/04/06 01:56:41;;;;;;;;;;;;;;;;;;2097273;28;20850;-83
2024/04/06 01:57:41;;;;;;;4.47;2.35;;;;;;;;;;2097395;28;19920;-81
2024/04/06 01:58:42;;;;;;;;;;;;;;;;;;2097100;28;20051;-81
2024/04/06 01:59:45;;;;;;;13.40;2.53;;;;;;;;;;2096808;28;19952;-81
2024/04/06 02:00:47;;;;;;;6.80;2.58;;;;;;;;;;2097736;28;20048;-81
2024/04/06 02:01:48;;;;;;;7.60;3.08;;;;;;;;;;2095057;28;20063;-80
2024/04/06 02:02:48;;;;;;;;;;;;;;;;;;2096693;28;20570;-81
2024/04/06 02:03:49;;;;;;;8.97;2.30;;;;;;;;;;2097731;28;19921;-81
2024/04/06 02:04:51;;;;;;;;;;;;;;;;;;2095585;28;20048;-83
2024/04/06 02:05:51;;;;;;;6.13;2.35;;;;;;;;;;2095901;28;20378;-80
2024/04/06 02:06:52;;;;;;;;;;;;;;;;;;2096302;28;20059;-81
2024/04/06 02:07:53;;;;;;;6.80;2.63;;;;;;;;;;2095784;28;19935;-80
2024/04/06 02:08:54;;;;;;;;;;;;;;;;;;2097787;28;20044;-83
2024/04/06 02:09:56;;;;;;;5.40;2.40;;;;;;;;;;2095320;28;20282;-83
2024/04/06 02:10:57;;;;;;;5.78;2.85;;;;;;;;;;2097209;28;20093;-80
2024/04/06 02:11:58;;;;;;;;;;;;;;;;;;2096129;28;20044;-82
2024/04/06 02:13:00;;;;;;;5.53;1.90;;;;;;;;;;2096715;28;19930;-81
2024/04/06 02:14:00;;;;;;;8.48;2.22;;;;;;;;;;2097436;28;20414;-83
2024/04/06 02:15:01;;;;;;;;;;;;;;;;;;2096507;28;20075;-81
2024/04/06 02:16:01;;;;;;;6.73;2.17;;;;;;;;;;2096406;28;19916;-80
2024/04/06 02:17:03;;;;;;;;;;;;;;;;;;2096912;28;20044;-81
2024/04/06 02:18:04;;;;;;;7.55;2.50;;;;;;;;;;2096290;28;20026;-84
2024/04/06 02:19:05;;;;;;;;;;;;;;;;;;2097546;28;20481;-83
2024/04/06 02:20:07;;;;;;;8.40;3.17;;;;;;;;;;2095650;28;20018;-83
2024/04/06 02:21:09;;;;;;;5.75;3.13;;;;;;;;;;2096488;28;20460;-82
2024/04/06 02:22:10;;;;;;;5.63;2.55;;;;;;;;;;2096620;28;20059;-81
2024/04/06 02:23:10;;;;;;;;;;;;;;;;;;2097221;28;20115;-83
2024/04/06 02:24:11;;;;;;;5.43;2.47;;;;;;;;;;2097448;28;20064;-83
2024/04/06 02:25:14;;;;;;;;;;;;;;;;;;2096113;28;20053;-83
2024/04/06 02:26:15;;;;;;;6.20;2.42;;;;;;;;;;2096180;28;19928;-81
2024/04/06 02:27:15;;;;;;;;;;;;;;;;;;2097853;28;20452;-82
2024/04/06 02:28:17;;;;;;;5.53;2.53;;;;;;;;;;2096261;28;19931;-80
2024/04/06 02:29:18;;;;;;;7.57;2.38;;;;;;;;;;2095567;28;20080;-82
2024/04/06 02:30:19;;;;;;;6.38;2.28;;;;;;;;;;2097043;28;20109;-83
2024/04/06 02:31:22;;;;;;;;;;;;;;;;;;2096682;28;20516;-82
2024/04/06 02:32:23;;;;;;;9.23;2.80;;;;;;;;;;2095452;28;20262;-80
2024/04/06 02:33:23;;;;;;;;;;;;;;;;;;2096429;28;20048;-80
2024/04/06 02:34:24;;;;;;;8.07;2.50;;;;;;;;;;2095980;28;19923;-83
2024/04/06 02:35:24;;;;;;;;;;;;;;;;;;2097106;28;20052;-83
2024/04/06 02:36:26;;;;;;;3.67;2.27;;;;;;;;;;2096624;28;20293;-84
2024/04/06 02:37:27;;;;;;;9.48;3.40;;;;;;;;;;2094602;28;20048;-84
2024/04/06 02:38:27;;;;;;;;;;;;;;;;;;2097632;28;20128;-82
2024/04/06 02:39:28;;;;;;;3.93;2.50;;;;;;;;;;2097267;28;20010;-82
2024/04/06 02:40:31;;;;;;;;;;;;;;;;;;2096234;28;20056;-82
2024/04/06 02:41:32;;;;;;;9.85;3.05;;;;;;;;;;2095519;28;19980;-82
2024/04/06 02:42:32;;;;;;;;;;;;;;;;;;2096981;28;20502;-83
2024/04/06 02:43:33;;;;;;;7.00;2.87;;;;;;;;;;2094566;28;19916;-83
2024/04/06 02:44:35;;;;;;;;;;;;;;;;;;2096685;28;20054;-82
2024/04/06 02:45:36;;;;;;;6.50;2.95;;;;;;;;;;2097000;28;19931;-82
2024/04/06 02:46:37;;;;;;;8.05;2.88;;;;;;;;;;2094114;28;20443;-81
2024/04/06 02:47:37;;;;;;;;;;;;;;;;;;2096442;28;20088;-82
2024/04/06 02:48:39;;;;;;;4.40;2.63;;;;;;;;;;2096333;28;19928;-82
2024/04/06 02:49:41;;;;;;;6.00;2.65;;;;;;;;;;2096170;28;20056;-82
2024/04/06 02:50:42;;;;;;;8.82;3.00;;;;;;;;;;2096403;28;20048;-82
2024/04/06 02:51:44;;;;;;;;;;;;;;;;;;2096959;28;20503;-82
2024/04/06 02:52:44;;;;;;;7.00;3.17;;;;;;;;;;2096418;28;19924;-81
2024/04/06 02:53:45;;;;;;;;;;;;;;;;;;2096598;28;20048;-81
2024/04/06 02:54:47;;;;;;;6.83;2.50;;;;;;;;;;2093469;28;19917;-81
2024/04/06 02:55:50;;;;;;;8.02;3.03;;;;;;;;;;2096540;28;20063;-83
2024/04/06 02:56:51;;;;;;;4.75;2.72;;;;;;;;;;2095479;28;20049;-82
2024/04/06 02:57:51;;;;;;;;;;;;;;;;;;2097089;28;20461;-83
2024/04/06 02:58:52;;;;;;;10.20;2.90;;;;;;;;;;2096358;28;19958;-82
2024/04/06 02:59:53;;;;;;;;;;;;;;;;;;2096940;28;20510;-82
2024/04/06 03:00:55;;;;;;;6.83;2.50;;;;;;;;;;2094675;28;19920;-82
2024/04/06 03:01:55;;;;;;;6.68;2.88;;;;;;;;;;2095656;28;20549;-82
2024/04/06 03:02:56;;;;;;;;;;;;;;;;;;2096576;28;20056;-82
2024/04/06 03:03:58;;;;;;;6.67;3.20;;;;;;;;;;2097048;28;19977;-81
2024/04/06 03:04:58;;;;;;;6.45;2.80;;;;;;;;;;2094468;28;20055;-82
2024/04/06 03:05:59;;;;;;;;;;;;;;;;;;2096279;28;20059;-82
2024/04/06 03:07:00;;;;;;;10.00;2.83;;;;;;;;;;2096490;28;19956;-82
2024/04/06 03:08:02;;;;;;;11.13;3.10;;;;;;;;;;2094889;28;20071;-82
2024/04/06 03:09:03;;;;;;;6.07;2.85;;;;;;;;;;2096376;28;20083;-83
2024/04/06 03:10:05;;;;;;;9.23;3.33;;;;;;;;;;2095497;28;20229;-82
2024/04/06 03:11:07;;;;;;;6.97;3.00;;;;;;;;;;2096028;28;20055;-83
2024/04/06 03:12:09;;;;;;;6.22;2.70;;;;;;;;;;2096873;28;20052;-83
2024/04/06 03:13:10;;;;;;;7.30;3.08;;;;;;;;;;2094082;28;20067;-81
2024/04/06 03:14:10;;;;;;;;;;;;;;;;;;2096993;28;20041;-81
2024/04/06 03:15:11;;;;;;;7.70;2.97;;;;;;;;;;2096454;28;20011;-83
2024/04/06 03:16:13;;;;;;;;;;;;;;;;;;2095241;28;20124;-82
2024/04/06 03:17:13;;;;;;;7.40;2.90;;;;;;;;;;2096301;28;20342;-80
2024/04/06 03:18:14;;;;;;;;;;;;;;;;;;2097382;28;20052;-82
2024/04/06 03:19:15;;;;;;;4.40;2.67;;;;;;;;;;2095703;28;20285;-82
2024/04/06 03:20:16;;;;;;;;;;;;;;;;;;2097178;28;20189;-82
2024/04/06 03:21:17;;;;;;;6.68;2.85;;;;;;;;;;2093669;28;20240;-83
2024/04/06 03:22:17;;;;;;;;;;;;;;;;;;2096391;28;20055;-82
2024/04/06 03:23:18;;;;;;;4.73;2.60;;;;;;;;;;2096339;28;19917;-81
2024/04/06 03:24:20;;;;;;;;;;;;;;;;;;2095752;28;20473;-81
2024/04/06 03:25:20;;;;;;;7.00;2.92;;;;;;;;;;2095863;28;20312;-82
2024/04/06 03:26:22;;;;;;;;;;;;;;;;;;2096992;28;20044;-81
2024/04/06 03:27:23;;;;;;;7.63;3.10;;;;;;;;;;2095551;28;19931;-81
2024/04/06 03:28:25;;;;;;;;;;;;;;;;;;2096967;28;20045;-82
2024/04/06 03:29:25;;;;;;;8.10;3.28;;;;;;;;;;2095545;28;20018;-82
2024/04/06 03:30:26;;;;;;;;;;;;;;;;;;2096958;28;20044;-81
2024/04/06 03:31:27;;;;;;;10.83;3.50;;;;;;;;;;2095174;28;19921;-81
2024/04/06 03:32:28;;;;;;;;;;;;;;;;;;2096241;28;20108;-82
2024/04/06 03:33:29;;;;;;;8.48;3.03;;;;;;;;;;2095212;28;20011;-83
2024/04/06 03:34:29;;;;;;;;;;;;;;;;;;2096783;28;20459;-82
2024/04/06 03:35:31;;;;;;;4.57;2.60;;;;;;;;;;2095299;28;20062;-84
2024/04/06 03:36:33;;;;;;;5.90;2.80;;;;;;;;;;2096294;28;20056;-82
2024/04/06 03:37:34;;;;;;;7.68;3.00;;;;;;;;;;2096038;28;20049;-82
2024/04/06 03:38:35;;;;;;;7.10;3.17;;;;;;;;;;2094981;28;20041;-83
2024/04/06 03:39:36;;;;;;;;;;;;;;;;;;2096893;28;20130;-83
2024/04/06 03:40:37;;;;;;;7.03;3.55;;;;;;;;;;2096129;28;19947;-83
2024/04/06 03:41:40;;;;;;;;;;;;;;;;;;2094880;28;20055;-82
2024/04/06 03:42:41;;;;;;;5.90;2.72;;;;;;;;;;2096249;28;19946;-81
2024/04/06 03:43:42;;;;;;;;;;;;;;;;;;2099724;28;20041;-84
2024/04/06 03:44:43;;;;;;;6.77;3.13;;;;;;;;;;2102463;28;20304;-81
2024/04/06 03:45:46;;;;;;;6.93;2.70;;;;;;;;;;2102821;28;20042;-82
2024/04/06 03:46:47;;;;;;;6.63;3.15;;;;;;;;;;2101885;28;20043;-82
2024/04/06 03:47:47;;;;;;;;;;;;;;;;;;2103335;28;20052;-81
2024/04/06 03:48:48;;;;;;;5.70;3.13;;;;;;;;;;2104283;28;19927;-81
2024/04/06 03:49:50;;;;;;;;;;;;;;;;;;2100881;28;20045;-82
2024/04/06 03:50:50;;;;;;;8.60;3.25;;;;;;;;;;2104394;28;19927;-82
2024/04/06 03:51:51;;;;;;;;;;;;;;;;;;2104199;28;20036;-82
2024/04/06 03:52:52;;;;;;;8.93;3.13;;;;;;;;;;2102551;28;20498;-83
2024/04/06 03:53:54;;;;;;;;;;;;;;;;;;2104739;28;20083;-83
2024/04/06 03:54:54;;;;;;;8.25;3.08;;;;;;;;;;2101246;28;19935;-82
2024/04/06 03:55:55;;;;;;;;;;;;;;;;;;2104562;28;20123;-84
2024/04/06 03:56:57;;;;;;;8.17;3.10;;;;;;;;;;2104555;28;19931;-82
2024/04/06 03:57:59;;;;;;;8.82;3.67;;;;;;;;;;2102359;28;20059;-81
2024/04/06 03:59:00;;;;;;;8.30;3.22;;;;;;;;;;2104444;28;20055;-82
2024/04/06 04:00:00;;;;;;;;;;;;;;;;;;2104091;28;20123;-83
2024/04/06 04:01:01;;;;;;;9.47;3.23;;;;;;;;;;2101693;28;20068;-84
2024/04/06 04:02:03;;;;;;;;;;;;;;;;;;2105666;28;20040;-82
2024/04/06 04:03:04;;;;;;;13.43;4.13;;;;;;;;;;2102339;28;20373;-81
2024/04/06 04:04:05;;;;;;;10.30;3.95;;;;;;;;;;2102853;28;20056;-82
2024/04/06 04:05:08;;;;;;;;;;;;;;;;;;2104467;28;20063;-81
2024/04/06 04:06:09;;;;;;;6.03;3.10;;;;;;;;;;2103073;28;20387;-82
2024/04/06 04:07:09;;;;;;;;;;;;;;;;;;2102872;28;20040;-82
2024/04/06 04:08:10;;;;;;;4.77;3.07;;;;;;;;;;2103240;28;19924;-82
2024/04/06 04:09:15;;;;;;;;;;;;;;;;;;2103227;28;20044;-82
2024/04/06 04:10:16;;;;;;;7.20;3.20;;;;;;;;;;2102918;28;19924;-82
2024/04/06 04:11:16;;;;;;;;;;;;;;;;;;2102736;28;20522;-81
2024/04/06 04:12:18;;;;;;;7.33;3.70;;;;;;;;;;2103677;28;19919;-82
2024/04/06 04:13:21;;;;;;;7.28;3.50;;;;;;;;;;2102352;28;20080;-81
2024/04/06 04:14:22;;;;;;;7.82;3.67;;;;;;;;;;2103700;28;20048;-82
2024/04/06 04:15:22;;;;;;;;;;;;;;;;;;2102758;28;20541;-82
2024/04/06 04:16:24;;;;;;;5.53;3.20;;;;;;;;;;2102062;28;19916;-82
2024/04/06 04:17:25;;;;;;;7.07;3.47;;;;;;;;;;2103398;28;20823;-82
2024/04/06 04:18:25;;;;;;;;;;;;;;;;;;2105035;28;20048;-82
2024/04/06 04:19:26;;;;;;;9.93;3.47;;;;;;;;;;2102518;28;19924;-81
2024/04/06 04:20:28;;;;;;;;;;;;;;;;;;2104126;28;20062;-82
2024/04/06 04:21:28;;;;;;;11.55;4.13;;;;;;;;;;2104328;28;20381;-83
2024/04/06 04:22:30;;;;;;;;;;;;;;;;;;2104118;28;20051;-83
2024/04/06 04:23:32;;;;;;;6.55;3.50;;;;;;;;;;2103901;28;19919;-83
2024/04/06 04:24:32;;;;;;;8.85;3.67;;;;;;;;;;2104679;28;20136;-82
2024/04/06 04:25:33;;;;;;;;;;;;;;;;;;2102126;28;20051;-82
2024/04/06 04:26:34;;;;;;;10.27;3.43;;;;;;;;;;2104167;28;19966;-82
2024/04/06 04:27:37;;;;;;;;;;;;;;;;;;2102425;28;20091;-82
2024/04/06 04:28:37;;;;;;;8.07;3.70;;;;;;;;;;2103297;28;19976;-81
2024/04/06 04:29:38;;;;;;;;;;;;;;;;;;2105080;28;20047;-81
2024/04/06 04:30:39;;;;;;;6.13;3.30;;;;;;;;;;2103642;28;20480;-82
2024/04/06 04:31:40;;;;;;;;;;;;;;;;;;2104495;28;20082;-82
2024/04/06 04:32:41;;;;;;;7.78;3.70;;;;;;;;;;2103380;28;19924;-81
2024/04/06 04:33:41;;;;;;;;;;;;;;;;;;2105585;28;20121;-83
2024/04/06 04:34:42;;;;;;;6.57;3.60;;;;;;;;;;2103613;28;19920;-83
2024/04/06 04:35:44;;;;;;;;;;;;;;;;;;2103695;28;20075;-82
2024/04/06 04:36:44;;;;;;;7.68;3.20;;;;;;;;;;2103792;28;19964;-83
2024/04/06 04:37:45;;;;;;;;;;;;;;;;;;2104898;28;20051;-82
2024/04/06 04:38:46;;;;;;;6.27;4.00;;;;;;;;;;2102634;28;19920;-84
2024/04/06 04:39:47;;;;;;;;;;;;;;;;;;2104847;28;20071;-81
2024/04/06 04:40:48;;;;;;;6.55;3.65;;;;;;;;;;2102109;28;19935;-82
2024/04/06 04:41:48;;;;;;;;;;;;;;;;;;2103462;28;20044;-82
2024/04/06 04:42:51;;;;;;;7.73;3.40;;;;;;;;;;2103840;28;19916;-81
2024/04/06 04:43:53;;;;;;;8.13;3.88;;;;;;;;;;2101131;28;20417;-83
2024/04/06 04:44:54;;;;;;;8.60;3.90;;;;;;;;;;2104169;28;20089;-83
2024/04/06 04:45:55;;;;;;;9.82;4.63;;;;;;;;;;2103802;28;20082;-82
2024/04/06 04:46:56;;;;;;;;;;;;;;;;;;2101926;28;20051;-82
2024/04/06 04:47:58;;;;;;;9.93;4.10;;;;;;;;;;2103415;28;19920;-81
2024/04/06 04:48:59;;;;;;;9.43;3.90;;;;;;;;;;2103242;28;20052;-82
2024/04/06 04:50:00;;;;;;;7.90;3.67;;;;;;;;;;2100700;28;20047;-81
2024/04/06 04:51:02;;;;;;;;;;;;;;;;;;2103988;28;20052;-82
2024/04/06 04:52:03;;;;;;;6.85;3.20;;;;;;;;;;2103566;28;19945;-82
2024/04/06 04:53:04;;;;;;;6.82;3.70;;;;;;;;;;2103313;28;20050;-83
2024/04/06 04:54:04;;;;;;;;;;;;;;;;;;2104230;28;20052;-82
2024/04/06 04:55:07;;;;;;;7.23;3.33;;;;;;;;;;2100864;28;20355;-82
2024/04/06 04:56:07;;;;;;;6.50;3.58;;;;;;;;;;2104115;28;20130;-83
2024/04/06 04:57:08;;;;;;;;;;;;;;;;;;2104882;28;20044;-80
2024/04/06 04:58:10;;;;;;;9.27;3.57;;;;;;;;;;2102059;28;20274;-82
2024/04/06 04:59:12;;;;;;;9.68;4.18;;;;;;;;;;2103736;28;20081;-81
2024/04/06 05:00:13;;;;;;;9.15;4.15;;;;;;;;;;2102367;28;20126;-82
2024/04/06 05:01:13;;;;;;;;;;;;;;;;;;2102598;28;20520;-81
2024/04/06 05:02:14;;;;;;;10.57;3.43;;;;;;;;;;2104857;28;19931;-82
2024/04/06 05:03:16;;;;;;;;;;;;;;;;;;2102562;28;20044;-81
2024/04/06 05:04:17;;;;;;;7.47;3.67;;;;;;;;;;2102066;28;19920;-81
2024/04/06 05:05:17;;;;;;;;;;;;;;;;;;2105140;28;20121;-83
2024/04/06 05:06:19;;;;;;;8.57;4.33;;;;;;;;;;2103324;28;20378;-81
2024/04/06 05:07:21;;;;;;;9.57;5.35;;;;;;;;;;2103054;28;20413;-83
2024/04/06 05:08:21;;;;;;;12.50;5.55;;;;;;;;;;2103191;28;20044;-81
2024/04/06 05:09:22;;;;;;;;;;;;;;;;;;2102804;28;20048;-82
2024/04/06 05:10:24;;;;;;;7.73;3.70;;;;;;;;;;2104500;28;19920;-82
2024/04/06 05:11:24;;;;;;;10.65;3.88;;;;;;;;;;2100803;28;20559;-81
2024/04/06 05:12:25;;;;;;;;;;;;;;;;;;2103183;28;20082;-82
2024/04/06 05:13:27;;;;;;;10.80;4.13;;;;;;;;;;2103681;28;20019;-81
2024/04/06 05:14:29;;;;;;;10.20;4.43;;;;;;;;;;2103410;28;20096;-81
2024/04/06 05:15:30;;;;;;;14.60;8.10;;;;;;;;;;2102361;28;20044;-82
2024/04/06 05:16:30;;;;;;;;;;;;;;;;;;2104022;28;20507;-82
2024/04/06 05:17:34;;;;;;;11.57;5.53;;;;;;;;;;2100469;28;19939;-81
2024/04/06 05:18:35;;;;;;;10.32;5.53;;;;;;;;;;2103850;28;20048;-83
2024/04/06 05:19:35;;;;;;;;;;;;;;;;;;2100256;28;20049;-80
2024/04/06 05:20:36;;;;;;;7.80;5.13;;;;;;;;;;2103635;28;19920;-83
2024/04/06 05:21:38;;;;;;;;;;;;;;;;;;2104484;28;20055;-82
2024/04/06 05:22:38;;;;;;;;;;;;;;;;;;2102470;28;20538;-83
2024/04/06 05:23:39;;;;;;;9.30;4.53;;;;;;;;;;2103192;28;19924;-81
2024/04/06 05:24:40;;;;;;;;;;;;;;;;;;2104482;28;20058;-82
2024/04/06 05:25:42;;;;;;;7.87;4.33;;;;;;;;;;2101764;28;19920;-83
2024/04/06 05:26:44;;;;;;;7.93;5.30;;;;;;;;;;2102757;28;20052;-82
2024/04/06 05:27:45;;;;;;;10.52;4.90;;;;;;;;;;2103860;28;20115;-83
2024/04/06 05:28:48;;;;;;;;;;;;;;;;;;2105366;28;20048;-83
2024/04/06 05:29:50;;;;;;;10.25;5.90;;;;;;;;;;2105236;28;20301;-81
2024/04/06 05:30:51;;;;;;;12.02;6.45;;;;;;;;;;2104065;28;20044;-82
2024/04/06 05:31:54;;;;;;;11.88;6.22;;;;;;;;;;2102509;28;20048;-81
2024/04/06 05:32:56;;;;;;;9.55;6.70;;;;;;;;;;2104717;28;20048;-82
2024/04/06 05:33:57;;;;;;;9.18;6.35;;;;;;;;;;2103595;28;20059;-83
2024/04/06 05:34:57;;;;;;;;;;;;;;;;;;2105020;28;20054;-84
2024/04/06 05:36:00;;;;;;;8.13;6.03;;;;;;;;;;2103472;28;19926;-82
2024/04/06 05:37:01;;;;;;;11.70;6.43;;;;;;;;;;2101386;28;20075;-83
2024/04/06 05:38:01;;;;;;;;;;;;;;;;;;2103670;28;20663;-82
2024/04/06 05:39:04;;;;;;;10.17;6.37;;;;;;;;;;2104848;28;19963;-81
2024/04/06 05:40:07;;;;;;;10.77;6.80;;;;;;;;;;2101537;27;20120;-82
2024/04/06 05:41:08;;;;;;;12.05;7.22;;;;;;;;;;2104869;28;20055;-81
2024/04/06 05:42:09;;;;;;;;;;;;;;;;;;2104783;28;20115;-80
2024/04/06 05:43:10;;;;;;;12.33;6.67;;;;;;;;;;2104657;28;20262;-82
2024/04/06 05:44:13;;;;;;;;;;;;;;;;;;2105818;28;20051;-83
2024/04/06 05:45:14;;;;;;;11.88;6.40;;;;;;;;;;2103962;28;20064;-81
2024/04/06 05:46:14;;;;;;;;;;;;;;;;;;2105417;28;20507;-84
2024/04/06 05:47:16;;;;;;;13.03;7.10;;;;;;;;;;2104241;28;19942;-83
2024/04/06 05:48:17;;;;;;;13.90;7.38;;;;;;;;;;2104054;28;20134;-82
2024/04/06 05:49:17;;;;;;;;;;;;;;;;;;2104630;28;20513;-81
2024/04/06 05:50:18;;;;;;;14.37;7.17;;;;;;;;;;2104901;28;19973;-81
2024/04/06 05:51:19;;;;;;;;;;;;;;;;;;2105420;28;20498;-81
2024/04/06 05:52:20;;;;;;;159.82;19.42;;;;;;;;;;2104011;28;19962;-79
2024/04/06 05:53:21;;;;;;;;;;;;;;;;;;2105806;28;20401;-81
2024/04/06 05:54:22;;;;;;;19.70;8.40;;;;;;;;;;2104035;28;20322;-78
2024/04/06 05:55:23;;;;;;;33.30;9.55;;;;;;;;;;2105587;28;20044;-81
2024/04/06 05:56:24;;;;;;;;;;;;;;;;;;2102853;28;20060;-80
2024/04/06 05:57:25;;;;;;;26.43;9.50;;;;;;;;;;2104524;28;19931;-81
2024/04/06 05:58:26;;;;;;;;;;;;;;;;;;2105003;28;20125;-80
2024/04/06 05:59:28;;;;;;;18.23;9.35;;;;;;;;;;2102860;28;19923;-80
2024/04/06 06:00:29;;;;;;;11.88;8.50;;;;;;;;;;2103635;28;20052;-80
2024/04/06 06:01:30;;;;;;;;;;;;;;;;;;2102893;28;20497;-80
2024/04/06 06:02:31;;;;;;;18.80;9.53;;;;;;;;;;2104168;28;19920;-81
2024/04/06 06:03:32;;;;;;;17.95;9.27;;;;;;;;;;2104792;28;20044;-82
2024/04/06 06:04:33;;;;;;;;;;;;;;;;;;2104659;28;20040;-81
2024/04/06 06:05:33;;;;;;;13.60;8.70;;;;;;;;;;2106174;28;19924;-82
2024/04/06 06:06:35;;;;;;;;;;;;;;;;;;2106292;28;20079;-81
2024/04/06 06:07:36;;;;;;;13.52;9.38;;;;;;;;;;2102806;28;19976;-82
2024/04/06 06:08:37;;;;;;;15.85;9.32;;;;;;;;;;2106316;28;20044;-83
2024/04/06 06:09:38;;;;;;;16.80;9.63;;;;;;;;;;2102618;28;20055;-84
2024/04/06 06:10:39;;;;;;;;;;;;;;;;;;2104925;28;20063;-82
2024/04/06 06:11:40;;;;;;;16.35;8.65;;;;;;;;;;2102656;28;20002;-82
2024/04/06 06:12:41;;;;;;;;;;;;;;;;;;2104950;28;20420;-84
2024/04/06 06:13:43;;;;;;;18.83;10.05;;;;;;;;;;2104641;28;19920;-83
2024/04/06 06:14:46;;;;;;;17.65;9.60;;;;;;;;;;2105094;28;20044;-83
2024/04/06 06:15:47;;;;;;;19.95;9.93;;;;;;;;;;2102701;28;20087;-83
2024/04/06 06:16:47;;;;;;;;;;;;;;;;;;2106305;28;20059;-82
2024/04/06 06:17:49;;;;;;;18.63;8.87;;;;;;;;;;2105026;28;19916;-82
2024/04/06 06:18:50;;;;;;;13.15;8.55;;;;;;;;;;2104803;28;20508;-84
2024/04/06 06:19:51;;;;;;;;;;;;;;;;;;2104753;28;20048;-82
2024/04/06 06:20:51;;;;;;;15.53;8.70;;;;;;;;;;2103529;28;19920;-83
2024/04/06 06:21:53;;;;;;;;;;;;;;;;;;2103984;28;20087;-83
2024/04/06 06:22:54;;;;;;;16.38;9.43;;;;;;;;;;2105388;28;19947;-84
2024/04/06 06:23:54;;;;;;;;;;;;;;;;;;2105488;28;20123;-85